Time;durP1;ratioP1;P1;durP2;ratioP2;P2;SDS_P1;SDS_P2;PMS_P1;PMS_P2;Temp;Humidity;BMP_temperature;BMP_pressure;BME280_temperature;BME280_humidity;BME280_pressure;Samples;Min_cycle;Max_cycle;Signal;HPM_P1;HPM_P2
2022/02/27 00:01:09;;;;;;;8.53;6.20;;;;;;;5.35;58.87;103283.19;4981076;28;20183;-67
2022/02/27 00:03:35;;;;;;;8.07;6.50;;;;;;;5.67;58.55;103283.69;4981263;28;20669;-67
2022/02/27 00:06:00;;;;;;;7.53;6.43;;;;;;;5.25;59.38;103285.91;4963895;28;20467;-67
2022/02/27 00:08:25;;;;;;;11.47;7.13;;;;;;;5.61;59.18;103291.91;4980206;28;20239;-70
2022/02/27 00:10:53;;;;;;;9.83;7.73;;;;;;;5.63;59.04;103281.66;4981584;28;20173;-67
2022/02/27 00:13:22;;;;;;;7.63;6.40;;;;;;;5.59;58.87;103290.91;4980648;28;20223;-68
2022/02/27 00:15:47;;;;;;;9.97;7.70;;;;;;;5.62;59.38;103285.06;4980816;28;20507;-68
2022/02/27 00:18:12;;;;;;;11.70;8.30;;;;;;;5.38;59.65;103298.91;4981027;28;20805;-67
2022/02/27 00:20:39;;;;;;;19.43;10.33;;;;;;;5.29;59.94;103298.28;4980711;28;20188;-67
2022/02/27 00:23:04;;;;;;;5.57;3.73;;;;;;;11.42;67.05;103271.47;4980438;28;20184;-55
2022/02/27 00:25:30;;;;;;;10.00;7.57;;;;;;;12.46;51.84;103266.53;4980949;28;20717;-54
2022/02/27 00:27:55;;;;;;;7.87;6.47;;;;;;;13.62;47.32;103254.56;4980312;28;20195;-52
2022/02/27 00:30:20;;;;;;;8.77;6.90;;;;;;;9.75;45.23;103268.31;4980538;28;20208;-67
2022/02/27 00:32:46;;;;;;;8.63;6.63;;;;;;;8.01;51.27;103287.84;4980976;28;20178;-67
2022/02/27 00:35:11;;;;;;;10.37;6.83;;;;;;;7.06;52.66;103280.13;4980633;28;20510;-68
2022/02/27 00:37:37;;;;;;;7.30;6.23;;;;;;;5.83;57.16;103285.66;4980494;28;20223;-67
2022/02/27 00:40:03;;;;;;;9.13;6.83;;;;;;;6.00;56.68;103282.59;4963887;28;20172;-66
2022/02/27 00:42:29;;;;;;;10.10;7.73;;;;;;;5.95;57.67;103288.22;4980180;28;20676;-67
2022/02/27 00:44:54;;;;;;;12.20;7.10;;;;;;;5.83;57.72;103283.06;4980311;28;20482;-67
2022/02/27 00:47:20;;;;;;;9.93;7.73;;;;;;;5.82;57.74;103283.84;4980697;28;20172;-64
2022/02/27 00:49:48;;;;;;;7.50;6.30;;;;;;;5.34;58.92;103290.84;4980443;28;20472;-67
2022/02/27 00:52:14;;;;;;;6.57;5.50;;;;;;;5.33;58.43;103282.19;4963794;28;20219;-67
2022/02/27 00:54:39;;;;;;;12.53;6.83;;;;;;;5.16;59.45;103286.13;4980849;28;20412;-67
2022/02/27 00:57:05;;;;;;;7.47;6.20;;;;;;;5.51;58.42;103285.19;4980011;28;20554;-67
2022/02/27 00:59:30;;;;;;;10.00;6.17;;;;;;;5.46;58.27;103290.84;4979994;28;20177;-68
2022/02/27 01:01:55;;;;;;;8.70;6.00;;;;;;;4.92;58.90;103299.84;4980722;28;20538;-67
2022/02/27 01:04:20;;;;;;;7.23;6.50;;;;;;;4.99;60.09;103295.25;4980250;28;20247;-68
2022/02/27 01:06:46;;;;;;;9.00;6.40;;;;;;;4.61;59.59;103303.59;4979783;28;20211;-68
2022/02/27 01:09:14;;;;;;;8.30;6.67;;;;;;;4.89;59.90;103305.69;4999043;28;20277;-66
2022/02/27 01:11:39;;;;;;;7.27;6.43;;;;;;;5.18;59.33;103306.91;4999242;28;20202;-67
2022/02/27 01:14:05;;;;;;;10.53;6.60;;;;;;;5.23;60.17;103308.16;4999337;28;20415;-69
2022/02/27 01:16:30;;;;;;;7.23;5.60;;;;;;;4.83;59.60;103316.47;4999394;28;20172;-67
2022/02/27 01:18:56;;;;;;;12.50;6.07;;;;;;;5.27;59.76;103311.88;4998739;28;20187;-67
2022/02/27 01:21:21;;;;;;;7.23;6.53;;;;;;;5.32;59.04;103305.38;4991149;28;20188;-70
2022/02/27 01:23:47;;;;;;;8.27;5.93;;;;;;;4.14;61.58;103309.53;4980026;28;20470;-70
2022/02/27 01:26:13;;;;;;;7.03;6.00;;;;;;;4.66;61.37;103310.03;4979578;28;20227;-70
2022/02/27 01:28:39;;;;;;;7.77;5.93;;;;;;;4.66;60.57;103302.28;4979913;28;20419;-69
2022/02/27 01:31:07;;;;;;;6.63;6.00;;;;;;;4.60;60.75;103307.00;4981209;28;20785;-70
2022/02/27 01:33:32;;;;;;;9.23;6.67;;;;;;;4.55;61.33;103303.16;4979482;28;20180;-70
2022/02/27 01:35:57;;;;;;;7.63;6.47;;;;;;;4.74;61.12;103308.03;4979693;28;20485;-70
2022/02/27 01:38:23;;;;;;;7.60;6.30;;;;;;;4.58;61.43;103300.78;4979856;28;20187;-70
2022/02/27 01:40:48;;;;;;;7.30;6.30;;;;;;;3.99;63.06;103298.94;4979618;28;20187;-69
2022/02/27 01:43:14;;;;;;;9.43;6.57;;;;;;;4.51;61.52;103299.44;4979580;28;20534;-70
2022/02/27 01:45:39;;;;;;;8.73;6.77;;;;;;;5.09;60.37;103302.00;4979754;28;20295;-70
2022/02/27 01:48:05;;;;;;;6.43;5.70;;;;;;;4.04;61.76;103312.19;4962718;28;20489;-69
2022/02/27 01:50:30;;;;;;;10.40;5.80;;;;;;;4.15;62.48;103305.25;4979453;28;20203;-69
2022/02/27 01:52:55;;;;;;;7.00;5.90;;;;;;;4.14;62.42;103304.38;4979945;28;20172;-69
2022/02/27 01:55:21;;;;;;;7.23;5.80;;;;;;;4.52;62.79;103303.81;4979407;28;20540;-69
2022/02/27 01:57:47;;;;;;;7.60;6.73;;;;;;;4.98;61.17;103298.63;4962550;28;20172;-70
2022/02/27 02:00:14;;;;;;;7.10;5.33;;;;;;;4.16;62.09;103304.50;4979853;28;20222;-70
2022/02/27 02:02:39;;;;;;;7.20;5.80;;;;;;;4.24;62.40;103300.81;4962436;28;20184;-70
2022/02/27 02:05:05;;;;;;;8.77;6.40;;;;;;;4.48;62.17;103300.88;4979178;28;20542;-70
2022/02/27 02:07:31;;;;;;;8.13;5.80;;;;;;;4.48;61.93;103295.72;4979221;28;20227;-70
2022/02/27 02:09:56;;;;;;;8.53;5.73;;;;;;;4.70;61.10;103293.97;4979208;28;20183;-70
2022/02/27 02:12:21;;;;;;;6.17;5.57;;;;;;;4.25;62.34;103296.53;4979376;28;20191;-69
2022/02/27 02:14:47;;;;;;;8.63;6.10;;;;;;;4.56;62.17;103302.38;4979253;28;20191;-70
2022/02/27 02:17:12;;;;;;;6.90;5.63;;;;;;;4.36;62.26;103301.75;4978946;28;20538;-69
2022/02/27 02:19:38;;;;;;;7.20;5.50;;;;;;;4.36;63.24;103301.75;4979795;28;20168;-69
2022/02/27 02:22:04;;;;;;;7.80;5.30;;;;;;;4.48;62.19;103304.38;4979015;28;20184;-70
2022/02/27 02:24:30;;;;;;;6.33;5.50;;;;;;;4.22;62.29;103312.69;4979204;28;20424;-70
2022/02/27 02:26:56;;;;;;;9.43;5.83;;;;;;;4.55;61.68;103310.91;4979117;28;20485;-70
2022/02/27 02:29:23;;;;;;;7.30;5.80;;;;;;;4.49;62.48;103300.09;4979028;28;20427;-70
2022/02/27 02:31:49;;;;;;;6.80;5.43;;;;;;;4.13;62.16;103301.69;4982581;28;20176;-69
2022/02/27 02:34:16;;;;;;;8.40;6.30;;;;;;;3.75;63.16;103304.72;4966558;28;20852;-69
2022/02/27 02:36:43;;;;;;;7.40;5.30;;;;;;;3.88;63.97;103300.66;4982746;28;20726;-70
2022/02/27 02:39:10;;;;;;;7.37;5.50;;;;;;;3.79;64.28;103288.69;4982706;28;20489;-69
2022/02/27 02:41:36;;;;;;;6.67;5.30;;;;;;;4.43;63.18;103297.97;4983470;28;20470;-70
2022/02/27 02:44:01;;;;;;;11.03;5.50;;;;;;;4.07;63.24;103308.94;4965888;28;20900;-70
2022/02/27 02:46:26;;;;;;;6.43;5.47;;;;;;;3.82;64.83;103309.59;4982809;28;20731;-70
2022/02/27 02:48:52;;;;;;;8.30;5.93;;;;;;;4.12;64.83;103307.63;4982911;28;20172;-69
2022/02/27 02:51:17;;;;;;;7.70;5.60;;;;;;;4.10;63.83;103301.41;4982402;28;20188;-69
2022/02/27 02:53:43;;;;;;;5.80;5.20;;;;;;;3.41;64.99;103309.78;4982451;28;20172;-70
2022/02/27 02:56:09;;;;;;;6.87;5.37;;;;;;;3.76;64.71;103301.38;4982969;28;20164;-69
2022/02/27 02:58:36;;;;;;;6.43;4.90;;;;;;;3.86;64.15;103304.78;4982256;28;20181;-69
2022/02/27 03:01:02;;;;;;;6.23;5.50;;;;;;;3.71;64.81;103303.59;4982365;28;20613;-70
2022/02/27 03:03:28;;;;;;;5.87;5.27;;;;;;;3.41;66.29;103304.63;4982884;28;20415;-70
2022/02/27 03:05:53;;;;;;;6.83;5.40;;;;;;;3.32;66.09;103307.38;4982110;28;20475;-69
2022/02/27 03:08:18;;;;;;;9.33;5.83;;;;;;;3.68;64.49;103304.25;4981616;28;20232;-69
2022/02/27 03:10:44;;;;;;;5.83;4.80;;;;;;;3.45;65.83;103309.25;4982336;28;20518;-69
2022/02/27 03:13:09;;;;;;;9.37;5.90;;;;;;;3.60;64.86;103313.06;4965084;28;20451;-69
2022/02/27 03:15:34;;;;;;;5.70;5.10;;;;;;;3.70;65.76;103310.41;4981977;28;20542;-72
2022/02/27 03:18:00;;;;;;;8.43;5.10;;;;;;;3.45;66.02;103312.75;4982315;28;20180;-69
2022/02/27 03:20:25;;;;;;;8.33;5.90;;;;;;;3.30;66.05;103307.25;4981731;28;20210;-71
2022/02/27 03:22:50;;;;;;;7.53;5.83;;;;;;;3.05;67.69;103303.47;4981823;28;20168;-70
2022/02/27 03:25:16;;;;;;;6.43;5.40;;;;;;;3.00;67.60;103301.41;4982281;28;20250;-72
2022/02/27 03:27:41;;;;;;;6.83;5.90;;;;;;;3.13;67.78;103302.41;4981619;28;20266;-69
2022/02/27 03:30:07;;;;;;;7.13;6.03;;;;;;;3.01;68.68;103303.19;4965426;28;20263;-70
2022/02/27 03:32:32;;;;;;;7.30;6.13;;;;;;;3.53;67.47;103305.59;4965294;28;20172;-69
2022/02/27 03:34:57;;;;;;;6.40;5.73;;;;;;;3.71;66.67;103307.06;4948819;28;20523;-70
2022/02/27 03:37:23;;;;;;;6.77;5.30;;;;;;;3.43;67.74;103298.81;4981347;28;20430;-69
2022/02/27 03:39:48;;;;;;;6.10;5.50;;;;;;;2.97;67.39;103308.88;4982084;28;20492;-70
2022/02/27 03:42:13;;;;;;;9.10;5.87;;;;;;;3.18;68.12;103308.81;4981243;28;20639;-70
2022/02/27 03:44:39;;;;;;;9.77;5.73;;;;;;;3.20;67.37;103315.00;4981375;28;20418;-69
2022/02/27 03:47:04;;;;;;;7.30;5.00;;;;;;;3.45;68.48;103315.31;4981462;28;20251;-69
2022/02/27 03:49:32;;;;;;;10.20;5.80;;;;;;;3.33;67.67;103315.22;4981219;28;20181;-71
2022/02/27 03:51:57;;;;;;;9.17;5.93;;;;;;;3.39;68.34;103301.03;4981257;28;20176;-69
2022/02/27 03:54:23;;;;;;;6.57;5.10;;;;;;;2.78;69.25;103308.13;4981515;28;20507;-70
2022/02/27 03:56:48;;;;;;;8.97;5.93;;;;;;;2.96;69.79;103311.31;4981072;28;20248;-69
2022/02/27 03:59:15;;;;;;;11.30;5.60;;;;;;;3.03;69.58;103316.19;4980934;28;20239;-69
2022/02/27 04:01:40;;;;;;;6.83;5.90;;;;;;;2.94;70.66;103316.34;4981646;28;20172;-69
2022/02/27 04:04:06;;;;;;;13.70;5.70;;;;;;;2.94;70.23;103316.34;4981054;28;20412;-69
2022/02/27 04:06:31;;;;;;;5.83;5.33;;;;;;;3.05;70.80;103319.81;4980973;28;20204;-70
2022/02/27 04:08:56;;;;;;;6.30;5.33;;;;;;;2.90;70.91;103311.72;4980642;28;20231;-69
2022/02/27 04:11:21;;;;;;;8.80;5.37;;;;;;;2.69;71.00;103313.41;4980831;28;20560;-69
2022/02/27 04:13:47;;;;;;;8.63;4.97;;;;;;;3.07;70.27;103314.78;4981183;28;20187;-69
2022/02/27 04:16:12;;;;;;;9.30;5.20;;;;;;;2.51;71.18;103303.38;4980778;28;20180;-69
2022/02/27 04:18:40;;;;;;;8.93;6.20;;;;;;;2.88;71.07;103305.53;4980613;28;20258;-69
2022/02/27 04:21:06;;;;;;;6.27;5.63;;;;;;;3.29;70.09;103300.28;4981469;28;20558;-70
2022/02/27 04:23:31;;;;;;;8.40;5.20;;;;;;;3.22;69.84;103312.56;4980597;28;20534;-71
2022/02/27 04:25:56;;;;;;;9.30;5.67;;;;;;;3.43;69.32;103308.25;4980431;28;20222;-70
2022/02/27 04:28:22;;;;;;;7.93;5.63;;;;;;;2.68;70.58;103312.53;4980796;28;20384;-70
2022/02/27 04:30:47;;;;;;;6.13;5.47;;;;;;;3.22;70.71;103309.97;4980475;28;20176;-70
2022/02/27 04:33:13;;;;;;;6.87;5.70;;;;;;;3.10;71.07;103312.44;4980468;28;20553;-70
2022/02/27 04:35:38;;;;;;;7.13;5.57;;;;;;;3.29;70.72;103308.03;4981005;28;20179;-70
2022/02/27 04:38:04;;;;;;;8.83;5.80;;;;;;;3.21;70.30;103306.50;4980197;28;20176;-70
2022/02/27 04:40:33;;;;;;;7.07;5.40;;;;;;;3.09;69.45;103303.81;4980704;28;20180;-71
2022/02/27 04:43:00;;;;;;;7.13;5.00;;;;;;;2.67;72.00;103305.56;4980864;28;20168;-70
2022/02/27 04:45:26;;;;;;;7.53;5.80;;;;;;;2.90;71.79;103304.00;4980241;28;20463;-69
2022/02/27 04:47:51;;;;;;;8.03;5.60;;;;;;;2.66;71.38;103303.75;4980112;28;20439;-69
2022/02/27 04:50:19;;;;;;;6.77;5.63;;;;;;;2.95;72.06;103307.84;4980790;28;20183;-69
2022/02/27 04:52:45;;;;;;;6.17;5.40;;;;;;;3.35;71.90;103298.19;4979452;28;20187;-70
2022/02/27 04:55:10;;;;;;;9.27;6.43;;;;;;;2.91;71.81;103303.22;4980033;28;20419;-69
2022/02/27 04:57:36;;;;;;;8.10;5.90;;;;;;;2.85;73.13;103303.59;4980362;28;20187;-70
2022/02/27 05:00:05;;;;;;;6.67;5.63;;;;;;;3.01;73.41;103297.16;4979971;28;20203;-68
2022/02/27 05:02:31;;;;;;;8.17;5.10;;;;;;;2.77;73.29;103298.59;4963446;28;20234;-68
2022/02/27 05:04:56;;;;;;;7.80;5.40;;;;;;;2.77;72.78;103301.19;4980409;28;20455;-70
2022/02/27 05:07:22;;;;;;;7.27;6.10;;;;;;;2.85;73.66;103302.72;4979553;28;20853;-69
2022/02/27 05:09:47;;;;;;;6.10;5.27;;;;;;;2.41;72.67;103302.47;4979788;28;20258;-70
2022/02/27 05:12:12;;;;;;;10.13;5.53;;;;;;;1.96;74.26;103308.97;4980623;28;20198;-69
2022/02/27 05:14:41;;;;;;;7.73;6.07;;;;;;;2.76;74.52;103309.66;4979722;28;20195;-69
2022/02/27 05:17:06;;;;;;;6.77;6.07;;;;;;;2.48;73.52;103322.84;4979782;28;20180;-69
2022/02/27 05:19:31;;;;;;;6.70;5.67;;;;;;;3.07;72.28;103317.34;4980197;28;20417;-70
2022/02/27 05:21:57;;;;;;;6.63;5.90;;;;;;;3.05;73.46;103321.50;4979632;28;20176;-70
2022/02/27 05:24:22;;;;;;;9.70;6.50;;;;;;;2.99;72.84;103324.44;4979637;28;20176;-70
2022/02/27 05:26:47;;;;;;;9.67;6.47;;;;;;;2.70;73.06;103316.09;4979968;28;20204;-71
2022/02/27 05:29:13;;;;;;;9.43;5.87;;;;;;;2.88;72.82;103322.66;4979487;28;20187;-68
2022/02/27 05:31:40;;;;;;;6.60;5.90;;;;;;;2.48;72.85;103313.41;4979864;28;20180;-68
2022/02/27 05:34:06;;;;;;;7.73;5.60;;;;;;;2.20;74.39;103315.31;4979702;28;20478;-69
2022/02/27 05:36:31;;;;;;;7.60;5.80;;;;;;;2.65;73.71;103317.44;4979465;28;20507;-70
2022/02/27 05:38:56;;;;;;;7.00;5.50;;;;;;;2.43;74.55;103329.25;4979365;28;20459;-68
2022/02/27 05:41:22;;;;;;;8.27;6.50;;;;;;;2.52;74.10;103330.03;4963132;28;20204;-69
2022/02/27 05:43:47;;;;;;;7.43;6.50;;;;;;;2.60;74.07;103326.44;4962530;28;20180;-69
2022/02/27 05:46:12;;;;;;;6.17;5.50;;;;;;;2.41;74.35;103342.00;4979222;28;20258;-69
2022/02/27 05:48:38;;;;;;;6.07;5.40;;;;;;;2.44;74.23;103343.94;4979423;28;20550;-69
2022/02/27 05:51:03;;;;;;;8.93;6.10;;;;;;;2.57;74.38;103349.38;4979219;28;20172;-69
2022/02/27 05:53:28;;;;;;;7.83;5.97;;;;;;;2.44;74.62;103351.66;4979191;28;20188;-70
2022/02/27 05:55:56;;;;;;;11.90;5.80;;;;;;;2.30;76.24;103359.09;4979897;28;20157;-70
2022/02/27 05:58:23;;;;;;;8.53;5.73;;;;;;;2.34;75.75;103365.41;4978964;28;20172;-69
2022/02/27 06:00:49;;;;;;;5.80;5.07;;;;;;;2.26;75.84;103358.69;4979402;28;20428;-69
2022/02/27 06:03:16;;;;;;;6.60;5.40;;;;;;;2.41;75.68;103352.31;4979586;28;20412;-70
2022/02/27 06:05:42;;;;;;;7.03;5.80;;;;;;;1.97;76.15;103360.56;4982614;28;20770;-70
2022/02/27 06:08:07;;;;;;;7.87;6.23;;;;;;;2.17;75.66;103358.81;4982939;28;20502;-70
2022/02/27 06:10:33;;;;;;;7.87;5.73;;;;;;;2.49;75.57;103347.78;4983740;28;20180;-69
2022/02/27 06:12:58;;;;;;;7.30;6.13;;;;;;;2.64;75.11;103346.53;4950041;28;20192;-69
2022/02/27 06:15:24;;;;;;;8.97;6.37;;;;;;;2.45;74.92;103343.16;4982989;28;20430;-70
2022/02/27 06:17:49;;;;;;;12.07;6.37;;;;;;;2.47;74.40;103347.66;4983146;28;20479;-69
2022/02/27 06:20:14;;;;;;;8.77;6.10;;;;;;;2.54;74.80;103346.50;4982857;28;20212;-69
2022/02/27 06:22:44;;;;;;;6.80;6.07;;;;;;;2.67;74.29;103346.78;4982704;28;20187;-69
2022/02/27 06:25:11;;;;;;;9.10;6.90;;;;;;;1.99;75.96;103356.47;4982967;28;20238;-70
2022/02/27 06:27:42;;;;;;;7.87;6.40;;;;;;;2.40;75.70;103359.91;4965572;28;20419;-70
2022/02/27 06:30:16;;;;;;;14.83;6.47;;;;;;;2.94;73.76;103357.59;4982500;28;20423;-70
2022/02/27 06:32:42;;;;;;;9.67;7.60;;;;;;;2.32;73.85;103360.13;4982582;28;20419;-70
2022/02/27 06:35:09;;;;;;;9.03;6.50;;;;;;;2.94;72.94;103348.97;4982772;28;20444;-70
2022/02/27 06:37:34;;;;;;;9.23;6.20;;;;;;;2.70;74.13;103352.16;4982871;28;20423;-70
2022/02/27 06:40:00;;;;;;;11.13;6.60;;;;;;;2.52;74.00;103368.66;4982784;28;20442;-69
2022/02/27 06:42:25;;;;;;;9.10;6.33;;;;;;;1.93;75.77;103371.34;4965702;28;20202;-70
2022/02/27 06:44:50;;;;;;;8.00;6.40;;;;;;;2.49;74.63;103366.72;4982681;28;20549;-70
2022/02/27 06:47:16;;;;;;;9.27;6.60;;;;;;;2.69;74.33;103364.91;4982114;28;20254;-70
2022/02/27 06:49:41;;;;;;;9.70;6.87;;;;;;;2.51;74.80;103366.84;4982281;28;20204;-70
2022/02/27 06:52:07;;;;;;;11.37;6.40;;;;;;;2.18;74.22;103373.50;4982661;28;20172;-69
2022/02/27 06:54:32;;;;;;;8.80;6.50;;;;;;;2.76;73.41;103372.41;4982180;28;20176;-71
2022/02/27 06:56:58;;;;;;;8.80;6.93;;;;;;;2.79;74.17;103372.66;4981925;28;20182;-68
2022/02/27 06:59:23;;;;;;;9.57;6.70;;;;;;;3.06;72.91;103382.56;4982590;28;20251;-70
2022/02/27 07:01:48;;;;;;;8.63;6.77;;;;;;;2.36;73.56;103387.94;4982016;28;20180;-71
2022/02/27 07:04:14;;;;;;;10.93;6.50;;;;;;;2.79;73.38;103384.66;4982094;28;20176;-70
2022/02/27 07:06:39;;;;;;;9.87;6.73;;;;;;;2.66;74.47;103388.75;4982295;28;20200;-69
2022/02/27 07:09:04;;;;;;;8.03;6.60;;;;;;;2.95;73.68;103384.25;4981535;28;20235;-70
2022/02/27 07:11:29;;;;;;;10.40;7.10;;;;;;;3.20;73.79;103385.50;4964966;28;20534;-69
2022/02/27 07:13:55;;;;;;;7.03;6.33;;;;;;;5.69;67.21;103371.00;4982391;28;20195;-69
2022/02/27 07:16:22;;;;;;;8.40;5.90;;;;;;;7.17;59.83;103371.63;4981171;28;20176;-69
2022/02/27 07:18:49;;;;;;;7.90;6.20;;;;;;;7.06;58.69;103373.50;4981729;28;20180;-69
2022/02/27 07:21:15;;;;;;;9.33;6.43;;;;;;;8.08;56.47;103360.16;4982169;28;20426;-69
2022/02/27 07:23:40;;;;;;;8.63;6.23;;;;;;;9.41;52.18;103357.59;4964836;28;20429;-69
2022/02/27 07:26:05;;;;;;;7.90;5.40;;;;;;;9.65;50.37;103354.59;4981476;28;20212;-70
2022/02/27 07:28:31;;;;;;;7.60;6.17;;;;;;;9.23;49.59;103357.47;4981793;28;20180;-70
2022/02/27 07:30:56;;;;;;;7.30;5.70;;;;;;;9.90;48.88;103363.75;4981558;28;20419;-69
2022/02/27 07:33:23;;;;;;;7.67;5.80;;;;;;;9.29;48.93;103364.72;4982048;28;20172;-70
2022/02/27 07:35:48;;;;;;;8.33;5.97;;;;;;;8.83;51.53;103364.66;4981689;28;20161;-70
2022/02/27 07:38:14;;;;;;;7.73;6.20;;;;;;;9.07;50.41;103360.00;4981146;28;20788;-70
2022/02/27 07:40:39;;;;;;;7.10;6.20;;;;;;;10.52;47.62;103344.50;4981401;28;20223;-71
2022/02/27 07:43:05;;;;;;;12.83;6.17;;;;;;;9.83;46.67;103356.44;4981684;28;20204;-70
2022/02/27 07:45:30;;;;;;;7.93;6.57;;;;;;;8.68;50.24;103362.94;4981102;28;20455;-70
2022/02/27 07:47:56;;;;;;;8.87;5.93;;;;;;;11.10;46.05;103348.28;4981344;28;20172;-71
2022/02/27 07:50:21;;;;;;;6.83;6.13;;;;;;;11.62;44.35;103349.88;4985347;28;20534;-69
2022/02/27 07:52:46;;;;;;;7.80;5.73;;;;;;;11.98;44.15;103344.63;4987827;28;20549;-68
2022/02/27 07:55:12;;;;;;;6.67;6.00;;;;;;;11.83;43.50;103352.63;4996153;28;20199;-68
2022/02/27 07:57:37;;;;;;;7.37;6.10;;;;;;;10.14;45.96;103352.88;5000564;28;20170;-67
2022/02/27 08:00:04;;;;;;;6.63;5.93;;;;;;;10.76;45.76;103363.13;4981070;28;20207;-68
2022/02/27 08:02:30;;;;;;;10.67;6.67;;;;;;;11.67;43.75;103358.84;4980928;28;20188;-67
2022/02/27 08:04:55;;;;;;;9.63;6.60;;;;;;;10.46;47.01;103357.22;4980588;28;20485;-68
2022/02/27 08:07:20;;;;;;;9.10;5.83;;;;;;;10.98;45.31;103360.72;4990349;28;20231;-68
2022/02/27 08:09:46;;;;;;;6.30;5.70;;;;;;;12.41;42.02;103357.00;5000556;28;20191;-67
2022/02/27 08:12:11;;;;;;;7.00;6.30;;;;;;;12.53;41.36;103350.53;5000766;28;20172;-67
2022/02/27 08:14:36;;;;;;;6.60;6.00;;;;;;;13.29;40.68;103341.50;5000136;28;20184;-67
2022/02/27 08:17:02;;;;;;;8.70;6.40;;;;;;;12.50;41.29;103353.00;5000143;28;20234;-68
2022/02/27 08:19:27;;;;;;;7.90;6.30;;;;;;;10.54;44.81;103361.13;5000685;28;20183;-68
2022/02/27 08:21:52;;;;;;;7.77;6.40;;;;;;;12.52;41.96;103356.59;5000121;28;20172;-69
2022/02/27 08:24:18;;;;;;;7.37;6.60;;;;;;;10.80;44.34;103358.97;4990960;28;20521;-69
2022/02/27 08:26:43;;;;;;;6.87;6.20;;;;;;;11.14;45.56;103358.03;4980657;28;20558;-68
2022/02/27 08:29:08;;;;;;;7.53;6.73;;;;;;;12.76;41.04;103355.03;4979382;28;20216;-70
2022/02/27 08:31:39;;;;;;;8.57;6.20;;;;;;;11.02;43.61;103360.06;4980496;28;20180;-68
2022/02/27 08:34:05;;;;;;;8.33;6.33;;;;;;;11.63;43.86;103367.34;4981105;28;20266;-69
2022/02/27 08:36:30;;;;;;;6.80;6.10;;;;;;;13.11;40.39;103357.31;4980492;28;20803;-69
2022/02/27 08:38:59;;;;;;;10.20;6.70;;;;;;;11.95;42.78;103353.22;4980263;28;20177;-70
2022/02/27 08:41:24;;;;;;;8.43;6.50;;;;;;;13.18;40.52;103355.84;4980788;28;20515;-68
2022/02/27 08:43:50;;;;;;;8.60;7.20;;;;;;;11.69;43.22;103362.44;4980238;28;20474;-69
2022/02/27 08:46:15;;;;;;;9.30;6.37;;;;;;;11.54;42.76;103360.00;4980215;28;20223;-68
2022/02/27 08:48:40;;;;;;;8.73;6.87;;;;;;;12.92;40.66;103356.59;4980397;28;20506;-68
2022/02/27 08:51:06;;;;;;;8.83;7.20;;;;;;;13.85;38.34;103349.81;4980065;28;20223;-68
2022/02/27 08:53:31;;;;;;;8.97;7.17;;;;;;;13.96;38.05;103355.44;4980001;28;20180;-69
2022/02/27 08:55:56;;;;;;;7.80;6.50;;;;;;;13.45;39.38;103357.00;4980569;28;20175;-68
2022/02/27 08:58:22;;;;;;;7.43;6.63;;;;;;;13.49;38.63;103352.81;4987989;28;20603;-69
2022/02/27 09:00:47;;;;;;;7.00;6.30;;;;;;;13.90;38.72;103347.38;4999320;28;20167;-69
2022/02/27 09:03:12;;;;;;;10.30;6.90;;;;;;;14.15;37.90;103350.06;4999836;28;20168;-71
2022/02/27 09:05:38;;;;;;;7.60;6.83;;;;;;;14.42;37.31;103348.38;4982329;28;20214;-69
2022/02/27 09:08:03;;;;;;;8.50;6.80;;;;;;;14.49;36.85;103356.53;4982109;28;20290;-70
2022/02/27 09:10:28;;;;;;;7.43;6.33;;;;;;;13.67;39.43;103359.59;4999768;28;20315;-67
2022/02/27 09:12:54;;;;;;;7.93;6.90;;;;;;;13.99;38.12;103347.72;4999076;28;20183;-68
2022/02/27 09:15:19;;;;;;;7.07;6.47;;;;;;;14.44;37.60;103352.84;4999244;28;20254;-68
2022/02/27 09:17:44;;;;;;;7.37;6.60;;;;;;;11.84;42.38;103353.50;4999593;28;20214;-69
2022/02/27 09:20:10;;;;;;;7.80;7.00;;;;;;;13.78;39.17;103351.28;4982153;28;20189;-69
2022/02/27 09:22:35;;;;;;;8.50;6.60;;;;;;;10.86;44.10;103361.00;4999132;28;20182;-68
2022/02/27 09:25:01;;;;;;;7.87;7.07;;;;;;;11.58;42.43;103353.19;4982161;28;20176;-69
2022/02/27 09:27:26;;;;;;;7.50;6.80;;;;;;;11.58;43.19;103353.19;4998934;28;20214;-69
2022/02/27 09:29:53;;;;;;;8.63;7.10;;;;;;;11.69;44.00;103351.97;4998714;28;20182;-70
2022/02/27 09:32:18;;;;;;;8.07;7.00;;;;;;;13.43;40.35;103352.53;4999271;28;20547;-69
2022/02/27 09:34:44;;;;;;;8.70;7.30;;;;;;;11.04;43.61;103359.31;4998774;28;20402;-69
2022/02/27 09:37:09;;;;;;;7.73;6.90;;;;;;;13.31;40.46;103350.28;4998575;28;20167;-68
2022/02/27 09:39:36;;;;;;;7.77;7.03;;;;;;;14.42;38.68;103346.66;4998964;28;20183;-68
2022/02/27 09:42:01;;;;;;;8.20;6.67;;;;;;;10.98;44.93;103353.78;4998547;28;20171;-68
2022/02/27 09:44:29;;;;;;;7.80;6.47;;;;;;;11.11;44.80;103365.75;4998616;28;20410;-66
2022/02/27 09:46:55;;;;;;;10.00;6.77;;;;;;;11.87;43.31;103364.13;4981949;28;20253;-68
2022/02/27 09:49:20;;;;;;;10.40;7.57;;;;;;;12.20;42.17;103358.69;4998637;28;20409;-70
2022/02/27 09:51:45;;;;;;;7.27;6.67;;;;;;;13.35;41.41;103352.19;4998630;28;20321;-69
2022/02/27 09:54:13;;;;;;;8.00;7.20;;;;;;;12.29;41.66;103351.25;4999118;28;20211;-68
2022/02/27 09:56:39;;;;;;;7.47;6.43;;;;;;;12.48;42.43;103350.34;4998590;28;20207;-68
2022/02/27 09:59:04;;;;;;;7.70;6.67;;;;;;;14.04;39.45;103340.88;4984219;28;20511;-69
2022/02/27 10:01:30;;;;;;;7.50;6.70;;;;;;;13.03;40.63;103351.78;4979549;28;20176;-68
2022/02/27 10:03:56;;;;;;;8.70;7.30;;;;;;;10.68;46.18;103353.13;4978947;28;20495;-68
2022/02/27 10:06:22;;;;;;;7.27;6.57;;;;;;;13.45;40.89;103338.69;4978787;28;20208;-68
2022/02/27 10:08:54;;;;;;;7.77;6.23;;;;;;;13.55;40.63;103350.41;4994570;28;20713;-69
2022/02/27 10:11:21;;;;;;;6.83;6.20;;;;;;;14.03;39.50;103349.63;4981286;28;20179;-68
2022/02/27 10:13:51;;;;;;;6.93;6.23;;;;;;;12.77;40.85;103354.22;4998728;28;20811;-68
2022/02/27 10:16:28;;;;;;;6.83;6.23;;;;;;;12.78;42.45;103349.84;4981718;28;20427;-69
2022/02/27 10:18:56;;;;;;;7.13;6.43;;;;;;;13.83;39.46;103346.25;4998165;28;20418;-69
2022/02/27 10:21:23;;;;;;;7.80;7.00;;;;;;;14.52;38.42;103347.88;4998353;28;20697;-70
2022/02/27 10:23:58;;;;;;;7.10;6.20;;;;;;;13.56;40.08;103344.34;4998124;28;20418;-70
2022/02/27 10:26:25;;;;;;;8.00;7.20;;;;;;;14.10;39.31;103349.00;4981193;28;20456;-69
2022/02/27 10:29:09;;;;;;;8.63;6.57;;;;;;;11.46;43.86;103359.63;4998199;28;20418;-68
2022/02/27 10:31:35;;;;;;;9.80;7.10;;;;;;;13.90;39.98;103344.75;4997875;28;20414;-71
2022/02/27 10:34:27;;;;;;;7.90;6.93;;;;;;;13.10;41.67;103345.97;4998178;28;20415;-68
2022/02/27 10:37:05;;;;;;;11.40;7.50;;;;;;;12.92;42.20;103350.44;4998192;28;20783;-69
2022/02/27 10:39:46;;;;;;;8.20;7.30;;;;;;;12.14;43.78;103354.06;4998130;28;20505;-69
2022/02/27 10:42:17;;;;;;;7.27;6.60;;;;;;;12.01;42.90;103354.34;4998227;28;20422;-68
2022/02/27 10:44:54;;;;;;;9.73;6.97;;;;;;;10.69;46.46;103355.81;4998102;28;20415;-69
2022/02/27 10:47:25;;;;;;;8.47;7.23;;;;;;;12.85;42.66;103348.41;4997896;28;20549;-68
2022/02/27 10:49:52;;;;;;;12.03;6.73;;;;;;;13.88;39.50;103338.53;4998123;28;20445;-68
2022/02/27 10:52:42;;;;;;;7.30;6.60;;;;;;;11.98;43.63;103347.25;5000221;28;20423;-68
2022/02/27 10:55:08;;;;;;;6.83;6.00;;;;;;;12.45;42.95;103348.47;5001259;28;20418;-69
2022/02/27 10:57:36;;;;;;;8.73;7.20;;;;;;;13.78;40.28;103340.81;5001174;28;20433;-68
2022/02/27 11:00:28;;;;;;;8.10;6.60;;;;;;;13.20;41.65;103344.63;5001184;28;20191;-70
2022/02/27 11:03:08;;;;;;;7.43;6.20;;;;;;;12.94;40.67;103349.66;4989095;28;20759;-69
2022/02/27 11:05:35;;;;;;;6.77;5.97;;;;;;;12.51;42.45;103346.97;5001250;28;20468;-66
2022/02/27 11:08:03;;;;;;;8.87;7.70;;;;;;;12.45;42.01;103340.63;5001050;28;20466;-67
2022/02/27 11:10:33;;;;;;;7.70;6.10;;;;;;;12.30;41.90;103334.72;5001367;28;20819;-69
2022/02/27 11:13:00;;;;;;;7.60;6.10;;;;;;;13.44;39.88;103322.91;5001563;28;20427;-69
2022/02/27 11:15:26;;;;;;;7.03;5.73;;;;;;;12.43;41.41;103325.69;4984309;28;20411;-69
2022/02/27 11:17:51;;;;;;;8.53;5.60;;;;;;;12.69;41.42;103339.91;5001012;28;20425;-69
2022/02/27 11:20:19;;;;;;;9.13;6.00;;;;;;;12.60;41.29;103324.69;5001554;28;20222;-68
2022/02/27 11:22:45;;;;;;;7.70;6.53;;;;;;;12.79;41.50;103320.25;5000905;28;20179;-68
2022/02/27 11:25:11;;;;;;;7.35;6.40;;;;;;;13.00;41.33;103314.97;4983889;28;20442;-68